Time;durP1;ratioP1;P1;durP2;ratioP2;P2;SDS_P1;SDS_P2;PMS_P1;PMS_P2;Temp;Humidity;BMP_temperature;BMP_pressure;BME280_temperature;BME280_humidity;BME280_pressure;Samples;Min_cycle;Max_cycle;Signal;HPM_P1;HPM_P2
2023/06/06 00:01:49;;;;;;;4.78;3.13;;;19.10;99.90;;;;;;5055347;28;20037;-51
2023/06/06 00:04:15;;;;;;;4.18;2.70;;;19.10;99.90;;;;;;5055108;28;20064;-51
2023/06/06 00:06:44;;;;;;;4.40;2.95;;;19.10;99.90;;;;;;5055566;28;20049;-51
2023/06/06 00:09:10;;;;;;;9.88;2.70;;;19.30;99.90;;;;;;5055112;28;20112;-51
2023/06/06 00:11:39;;;;;;;3.17;2.38;;;19.40;99.90;;;;;;5036740;28;20041;-51
2023/06/06 00:14:09;;;;;;;4.80;2.50;;;19.50;99.90;;;;;;5054846;28;20037;-51
2023/06/06 00:16:35;;;;;;;4.30;2.80;;;19.60;99.90;;;;;;5055046;28;20032;-51
2023/06/06 00:19:03;;;;;;;3.30;2.30;;;19.70;99.90;;;;;;5055179;28;20055;-51
2023/06/06 00:21:32;;;;;;;4.63;2.70;;;19.60;99.90;;;;;;5055523;28;20039;-51
2023/06/06 00:23:59;;;;;;;4.38;2.45;;;19.60;99.90;;;;;;5055016;28;20039;-51
2023/06/06 00:26:26;;;;;;;4.28;2.58;;;19.70;99.90;;;;;;5055171;28;20029;-51
2023/06/06 00:28:53;;;;;;;4.38;2.95;;;19.60;99.90;;;;;;5054869;28;20527;-52
2023/06/06 00:31:18;;;;;;;5.45;2.80;;;19.90;99.90;;;;;;5068529;28;20032;-50
2023/06/06 00:33:44;;;;;;;4.10;2.65;;;19.80;99.90;;;;;;5074968;28;20032;-50
2023/06/06 00:36:11;;;;;;;3.88;2.17;;;19.90;99.90;;;;;;5074763;28;20048;-51
2023/06/06 00:38:37;;;;;;;3.88;2.15;;;19.90;99.90;;;;;;5073212;28;20534;-51
2023/06/06 00:41:03;;;;;;;2.90;2.17;;;;;;;;;;5074748;28;20107;-51
2023/06/06 00:43:29;;;;;;;5.22;2.95;;;;;;;;;;5075035;28;20033;-51
2023/06/06 00:45:55;;;;;;;4.88;1.77;;;;;;;;;;5056167;28;20037;-51
2023/06/06 00:48:23;;;;;;;3.13;2.28;;;;;;;;;;5055778;28;20032;-52
2023/06/06 00:50:50;;;;;;;3.45;2.05;;;;;;;;;;5073262;28;20032;-51
2023/06/06 00:53:16;;;;;;;3.20;2.00;;;;;;;;;;5074514;28;20365;-50
2023/06/06 00:55:43;;;;;;;4.75;2.50;;;;;;;;;;5074180;28;20637;-51
2023/06/06 00:58:10;;;;;;;5.38;2.55;;;;;;;;;;5073874;28;20045;-51
2023/06/06 01:00:38;;;;;;;4.63;2.38;;;;;;;;;;5074281;28;20033;-50
2023/06/06 01:03:09;;;;;;;4.90;2.45;;;;;;;;;;5074116;28;20484;-50
2023/06/06 01:05:36;;;;;;;5.88;2.60;;;;;;;;;;5073877;28;20072;-51
2023/06/06 01:08:02;;;;;;;3.55;2.08;;;;;;;;;;5074479;28;20052;-51
2023/06/06 01:10:30;;;;;;;3.45;2.25;;;;;;;;;;5073992;28;20034;-51
2023/06/06 01:13:11;;;;;;;5.00;3.08;;;;;;;;;;5074219;28;20033;-50
2023/06/06 01:15:46;;;;;;;6.75;3.03;;;;;;;;;;5074046;28;20036;-51
2023/06/06 01:18:12;;;;;;;6.97;3.15;;;;;;;;;;5055290;28;20114;-51
2023/06/06 01:20:41;;;;;;;5.13;3.10;;;;;;;;;;5067075;28;20110;-50
2023/06/06 01:23:10;;;;;;;5.38;3.47;;;;;;;;;;5060608;28;20043;-51
2023/06/06 01:25:37;;;;;;;9.07;3.67;;;;;;;;;;5053638;28;20481;-51
2023/06/06 01:28:04;;;;;;;5.70;3.58;;;;;;;;;;5053909;28;20052;-52
2023/06/06 01:30:33;;;;;;;5.68;3.47;;;19.00;99.90;;;;;;5053686;28;20112;-51
2023/06/06 01:33:26;;;;;;;5.88;3.35;;;18.80;99.90;;;;;;5053806;28;20024;-51
2023/06/06 01:35:57;;;;;;;5.40;3.55;;;18.70;99.90;;;;;;5053842;28;20029;-50
2023/06/06 01:38:30;;;;;;;5.30;3.17;;;18.50;99.90;;;;;;5053654;28;20029;-51
2023/06/06 01:40:58;;;;;;;4.97;3.25;;;18.60;99.90;;;;;;5053479;28;20021;-51
2023/06/06 01:43:26;;;;;;;10.30;3.17;;;18.60;99.90;;;;;;5053709;28;20052;-51
2023/06/06 01:45:53;;;;;;;4.32;2.72;;;18.80;99.90;;;;;;5053817;28;20033;-51
2023/06/06 01:48:19;;;;;;;4.18;3.15;;;18.60;99.90;;;;;;5053232;28;20146;-51
2023/06/06 01:50:46;;;;;;;4.60;2.67;;;18.50;99.90;;;;;;5053356;28;20094;-50
2023/06/06 01:53:12;;;;;;;4.75;2.80;;;18.40;99.90;;;;;;5051891;28;20415;-50
2023/06/06 01:55:38;;;;;;;5.10;3.15;;;18.40;99.90;;;;;;5034946;28;20128;-50
2023/06/06 01:58:05;;;;;;;7.35;3.10;;;18.40;99.90;;;;;;5053324;28;20048;-50
2023/06/06 02:00:31;;;;;;;4.63;2.83;;;18.30;99.90;;;;;;5018311;28;20033;-50
2023/06/06 02:02:57;;;;;;;5.60;3.05;;;18.30;99.90;;;;;;5053271;28;20025;-50
2023/06/06 02:05:23;;;;;;;4.95;3.30;;;18.40;99.90;;;;;;5053001;28;20135;-51
2023/06/06 02:07:52;;;;;;;8.30;3.47;;;18.60;99.90;;;;;;5053042;28;20114;-51
2023/06/06 02:10:17;;;;;;;6.03;3.30;;;18.90;99.90;;;;;;5053017;28;20040;-51
2023/06/06 02:12:43;;;;;;;7.05;3.13;;;18.70;99.90;;;;;;5034307;28;20033;-51
2023/06/06 02:15:15;;;;;;;4.85;3.25;;;18.50;99.90;;;;;;5001718;28;20062;-51
2023/06/06 02:17:41;;;;;;;6.05;2.90;;;18.30;99.90;;;;;;5052932;28;20041;-50
2023/06/06 02:20:09;;;;;;;4.78;3.08;;;18.30;99.90;;;;;;5052629;28;20033;-51
2023/06/06 02:22:34;;;;;;;9.60;3.95;;;18.30;99.90;;;;;;4991536;28;20125;-51
2023/06/06 02:25:03;;;;;;;6.78;3.45;;;18.30;99.90;;;;;;4991480;28;20170;-50
2023/06/06 02:27:31;;;;;;;5.30;3.55;;;18.30;99.90;;;;;;4991472;28;20105;-51
2023/06/06 02:29:57;;;;;;;5.93;3.25;;;18.20;99.90;;;;;;4991575;28;20027;-50
2023/06/06 02:32:23;;;;;;;6.70;3.55;;;18.20;99.90;;;;;;4991496;28;20158;-50
2023/06/06 02:34:50;;;;;;;5.63;3.60;;;18.10;99.90;;;;;;4991437;28;20042;-50
2023/06/06 02:37:16;;;;;;;5.97;3.10;;;18.10;99.90;;;;;;4990324;28;20057;-50
2023/06/06 02:39:41;;;;;;;6.03;4.03;;;18.10;99.90;;;;;;4990936;28;20039;-50
2023/06/06 02:42:07;;;;;;;6.78;4.13;;;18.10;99.90;;;;;;4991039;28;20065;-51
2023/06/06 02:44:34;;;;;;;5.30;3.70;;;18.30;99.90;;;;;;4939586;28;20082;-53
2023/06/06 02:47:00;;;;;;;6.45;3.55;;;18.30;99.90;;;;;;4971936;28;20039;-51
2023/06/06 02:49:27;;;;;;;6.88;3.28;;;18.30;99.90;;;;;;4977382;28;20037;-51
2023/06/06 02:51:53;;;;;;;6.32;4.47;;;18.30;99.90;;;;;;4991284;28;20038;-50
2023/06/06 02:54:19;;;;;;;8.82;4.05;;;18.30;99.90;;;;;;5023391;28;20449;-50
2023/06/06 02:56:45;;;;;;;8.88;4.32;;;18.30;99.90;;;;;;4981312;28;20034;-50
2023/06/06 02:59:10;;;;;;;7.82;4.28;;;18.30;99.90;;;;;;5037712;28;20036;-51
2023/06/06 03:01:36;;;;;;;9.73;4.28;;;18.30;99.90;;;;;;5072591;28;20028;-50
2023/06/06 03:04:03;;;;;;;7.45;4.20;;;18.20;99.90;;;;;;5054094;28;20036;-51
2023/06/06 03:06:29;;;;;;;9.43;4.13;;;18.10;99.90;;;;;;5072440;28;20045;-51
2023/06/06 03:08:57;;;;;;;13.57;4.82;;;18.20;99.90;;;;;;5054070;28;20047;-50
2023/06/06 03:11:25;;;;;;;9.85;4.80;;;18.50;99.90;;;;;;5072615;28;20037;-51
2023/06/06 03:13:51;;;;;;;8.18;5.07;;;18.60;99.90;;;;;;5072403;28;20107;-50
2023/06/06 03:16:17;;;;;;;8.77;4.53;;;18.80;99.90;;;;;;5072863;28;20036;-50
2023/06/06 03:18:46;;;;;;;10.07;4.85;;;18.60;99.90;;;;;;5072437;28;20033;-51
2023/06/06 03:21:14;;;;;;;9.55;4.38;;;18.60;99.90;;;;;;5072411;28;20089;-51
2023/06/06 03:23:40;;;;;;;7.97;4.00;;;18.50;99.90;;;;;;5054008;28;20438;-51
2023/06/06 03:26:06;;;;;;;9.13;4.55;;;18.20;99.90;;;;;;5072475;28;20029;-50
2023/06/06 03:28:32;;;;;;;10.32;4.65;;;18.10;99.90;;;;;;5053823;28;20090;-52
2023/06/06 03:30:58;;;;;;;11.50;4.82;;;18.00;99.90;;;;;;5072420;28;20419;-51
2023/06/06 03:33:23;;;;;;;7.68;4.57;;;18.00;99.90;;;;;;5074753;28;20028;-51
2023/06/06 03:35:50;;;;;;;7.10;4.68;;;18.00;99.90;;;;;;5075977;28;20452;-50
2023/06/06 03:38:15;;;;;;;8.35;3.97;;;18.00;99.90;;;;;;5075561;28;20082;-51
2023/06/06 03:40:41;;;;;;;8.45;4.53;;;18.10;99.90;;;;;;5076194;28;20395;-50
2023/06/06 03:43:07;;;;;;;7.53;4.47;;;18.10;99.90;;;;;;5075698;28;20529;-50
2023/06/06 03:45:33;;;;;;;6.32;3.92;;;18.10;99.90;;;;;;5075599;28;20036;-51
2023/06/06 03:47:59;;;;;;;7.25;4.95;;;;;;;;;;5057176;28;20040;-51
2023/06/06 03:50:25;;;;;;;8.30;4.47;;;18.40;99.90;;;;;;5075562;28;20033;-50
2023/06/06 03:52:51;;;;;;;5.03;3.63;;;18.70;99.90;;;;;;5074520;28;20036;-51
2023/06/06 03:55:17;;;;;;;6.47;4.18;;;18.80;99.90;;;;;;5075736;28;20520;-50
2023/06/06 03:57:42;;;;;;;7.78;4.43;;;18.70;99.90;;;;;;5075288;28;20400;-51
2023/06/06 04:00:13;;;;;;;7.47;4.65;;;18.80;99.90;;;;;;5075360;28;20021;-51
2023/06/06 04:02:49;;;;;;;8.20;4.18;;;18.80;99.90;;;;;;5057223;28;20476;-50
2023/06/06 04:05:16;;;;;;;11.60;3.78;;;18.90;99.90;;;;;;5056305;28;20083;-51
2023/06/06 04:07:42;;;;;;;7.50;4.47;;;19.00;99.90;;;;;;5075154;28;20109;-50
2023/06/06 04:10:09;;;;;;;6.35;4.30;;;18.80;99.90;;;;;;5074962;28;20111;-50
2023/06/06 04:12:35;;;;;;;8.73;4.63;;;18.60;99.90;;;;;;5023015;28;20039;-50
2023/06/06 04:15:00;;;;;;;9.07;5.25;;;18.60;99.90;;;;;;5075060;28;20103;-50
2023/06/06 04:17:26;;;;;;;6.80;4.10;;;18.60;99.90;;;;;;5055578;28;20518;-51
2023/06/06 04:19:53;;;;;;;8.73;4.82;;;18.70;99.90;;;;;;5075074;28;20024;-50
2023/06/06 04:22:19;;;;;;;10.00;4.88;;;18.70;99.90;;;;;;5065923;28;20048;-51
2023/06/06 04:24:46;;;;;;;9.50;4.40;;;18.80;99.90;;;;;;5063288;28;20029;-50
2023/06/06 04:27:12;;;;;;;6.05;3.97;;;18.70;99.90;;;;;;5057017;28;20060;-50
2023/06/06 04:29:41;;;;;;;5.55;3.90;;;18.70;99.90;;;;;;5065098;28;20067;-50
2023/06/06 04:32:08;;;;;;;7.03;3.97;;;18.70;99.90;;;;;;5074371;28;20048;-51
2023/06/06 04:34:44;;;;;;;9.25;4.28;;;18.70;99.90;;;;;;5074509;28;20032;-51
2023/06/06 04:37:13;;;;;;;7.57;4.35;;;18.70;99.90;;;;;;5056390;28;20033;-51
2023/06/06 04:39:39;;;;;;;7.35;4.05;;;18.60;99.90;;;;;;5065535;28;20048;-50
2023/06/06 04:42:06;;;;;;;7.65;4.28;;;18.70;99.90;;;;;;5074154;28;20067;-51
2023/06/06 04:44:41;;;;;;;8.25;4.45;;;18.70;99.90;;;;;;5069708;28;20025;-52
2023/06/06 04:47:08;;;;;;;6.90;4.50;;;19.00;99.90;;;;;;5032051;28;20463;-51
2023/06/06 04:49:38;;;;;;;7.85;4.68;;;19.10;99.90;;;;;;5065412;28;20061;-51
2023/06/06 04:52:12;;;;;;;8.40;4.68;;;19.20;99.90;;;;;;5063147;28;20091;-50
2023/06/06 04:54:40;;;;;;;9.10;4.75;;;19.30;99.90;;;;;;5062978;28;20086;-51
2023/06/06 04:57:15;;;;;;;7.45;3.38;;;19.30;99.90;;;;;;5074207;28;20087;-51
2023/06/06 04:59:43;;;;;;;4.60;3.00;;;18.80;99.90;;;;;;5067156;28;20024;-50
2023/06/06 05:02:09;;;;;;;7.00;3.70;;;18.40;99.90;;;;;;5062639;28;20484;-51
2023/06/06 05:04:35;;;;;;;6.15;3.55;;;18.30;99.90;;;;;;5063270;28;20035;-50
2023/06/06 05:07:00;;;;;;;6.45;4.13;;;18.30;99.90;;;;;;5064447;28;20039;-51
2023/06/06 05:09:26;;;;;;;5.68;3.78;;;18.50;99.90;;;;;;5058447;28;20033;-51
2023/06/06 05:11:54;;;;;;;6.43;3.53;;;18.60;99.90;;;;;;5053971;28;20427;-51
2023/06/06 05:14:23;;;;;;;6.28;3.90;;;18.60;99.90;;;;;;5054169;28;20112;-51
2023/06/06 05:16:53;;;;;;;6.90;3.55;;;18.60;99.90;;;;;;5056935;28;20049;-51
2023/06/06 05:19:20;;;;;;;5.70;3.70;;;18.60;99.90;;;;;;5056932;28;20049;-51
2023/06/06 05:21:47;;;;;;;7.30;4.38;;;18.60;99.90;;;;;;5064084;28;20119;-52
2023/06/06 05:24:14;;;;;;;11.23;2.78;;;18.40;99.90;;;;;;5062665;28;20025;-51
2023/06/06 05:26:39;;;;;;;6.60;4.03;;;18.30;99.90;;;;;;5063005;28;20464;-51
2023/06/06 05:29:05;;;;;;;6.25;3.90;;;18.50;99.90;;;;;;5064067;28;20117;-50
2023/06/06 05:31:33;;;;;;;5.90;3.88;;;18.70;99.90;;;;;;5062178;28;20496;-51
2023/06/06 05:34:00;;;;;;;6.97;4.20;;;18.90;99.90;;;;;;5064181;28;20032;-50
2023/06/06 05:36:25;;;;;;;6.50;4.05;;;19.20;99.90;;;;;;5060075;28;20033;-51
2023/06/06 05:38:51;;;;;;;7.38;4.35;;;19.50;99.90;;;;;;5073394;28;20043;-51
2023/06/06 05:41:20;;;;;;;5.18;3.60;;;19.60;99.90;;;;;;5055125;28;20111;-50
2023/06/06 05:43:53;;;;;;;6.13;3.92;;;19.70;99.90;;;;;;5073467;28;20475;-51
2023/06/06 05:46:19;;;;;;;5.88;3.75;;;19.90;99.90;;;;;;5073796;28;20083;-50
2023/06/06 05:48:47;;;;;;;5.85;3.90;;;20.40;99.90;;;;;;5074019;28;20024;-50
2023/06/06 05:51:13;;;;;;;6.95;3.83;;;;;;;;;;5051273;28;20084;-51
2023/06/06 05:53:45;;;;;;;7.78;3.85;;;20.50;99.90;;;;;;5051307;28;20033;-50
2023/06/06 05:56:16;;;;;;;5.90;3.53;;;20.70;99.90;;;;;;5050461;28;20076;-50
2023/06/06 05:58:44;;;;;;;5.18;3.20;;;20.60;99.90;;;;;;5051191;28;20499;-50
2023/06/06 06:01:12;;;;;;;5.50;3.22;;;20.40;99.90;;;;;;5011484;28;20516;-50
2023/06/06 06:03:39;;;;;;;5.32;3.35;;;20.60;99.90;;;;;;5011643;28;20038;-50
2023/06/06 06:06:08;;;;;;;4.90;3.08;;;20.90;99.90;;;;;;5011276;28;20057;-50
2023/06/06 06:08:37;;;;;;;4.82;3.15;;;20.80;99.90;;;;;;5011440;28;20041;-51
2023/06/06 06:11:02;;;;;;;5.25;2.88;;;20.50;99.90;;;;;;5011395;28;20432;-51
2023/06/06 06:13:29;;;;;;;5.85;3.97;;;20.10;99.90;;;;;;4962823;28;20042;-50
2023/06/06 06:15:55;;;;;;;6.20;3.65;;;20.00;99.90;;;;;;5011339;28;20034;-51
2023/06/06 06:18:21;;;;;;;4.95;3.30;;;;;;;;;;5011386;28;20373;-50
2023/06/06 06:20:47;;;;;;;6.03;3.55;;;19.90;99.90;;;;;;5011316;28;20121;-51
2023/06/06 06:23:13;;;;;;;6.72;3.70;;;20.00;99.90;;;;;;5047855;28;20466;-50
2023/06/06 06:25:39;;;;;;;6.75;4.35;;;20.00;99.90;;;;;;5050827;28;20039;-50
2023/06/06 06:28:16;;;;;;;6.03;3.97;;;20.00;99.90;;;;;;5018049;28;20124;-50
2023/06/06 06:30:42;;;;;;;6.30;4.15;;;20.30;99.90;;;;;;5050976;28;20048;-50
2023/06/06 06:33:08;;;;;;;5.50;3.42;;;20.40;99.90;;;;;;5071030;28;20512;-51
2023/06/06 06:35:34;;;;;;;5.38;3.85;;;20.60;99.90;;;;;;5073032;28;20111;-50
2023/06/06 06:37:59;;;;;;;6.07;3.60;;;20.50;99.90;;;;;;5072794;28;20131;-51
2023/06/06 06:40:25;;;;;;;6.15;3.33;;;20.30;99.90;;;;;;5054491;28;20040;-51
2023/06/06 06:42:51;;;;;;;4.93;3.65;;;20.20;99.90;;;;;;5072850;28;20025;-50
2023/06/06 06:45:19;;;;;;;6.85;3.60;;;20.10;99.90;;;;;;5072909;28;20115;-51
2023/06/06 06:47:45;;;;;;;7.10;3.60;;;20.20;99.90;;;;;;5072808;28;20188;-50
2023/06/06 06:50:11;;;;;;;8.25;3.85;;;20.30;99.90;;;;;;5054412;28;20154;-51
2023/06/06 06:52:37;;;;;;;8.05;3.97;;;20.40;99.90;;;;;;5072993;28;20029;-50
2023/06/06 06:55:04;;;;;;;4.70;3.38;;;20.60;99.90;;;;;;5072784;28;20032;-51
2023/06/06 06:57:31;;;;;;;5.03;3.42;;;20.80;99.90;;;;;;5037971;28;20182;-51
2023/06/06 06:59:58;;;;;;;6.40;3.53;;;20.80;99.90;;;;;;5072986;28;20025;-50
2023/06/06 07:02:26;;;;;;;10.10;3.55;;;21.20;99.90;;;;;;5054242;28;20041;-50
2023/06/06 07:04:53;;;;;;;5.13;3.65;;;21.50;99.90;;;;;;5072488;28;20054;-50
2023/06/06 07:07:18;;;;;;;4.50;3.30;;;21.90;99.90;;;;;;5056343;28;20028;-50
2023/06/06 07:09:45;;;;;;;5.13;3.58;;;;;;;;;;5058091;28;20052;-51
2023/06/06 07:12:11;;;;;;;5.47;3.08;;;22.20;99.90;;;;;;5076650;28;20028;-50
2023/06/06 07:14:38;;;;;;;6.22;3.80;;;22.20;99.90;;;;;;5076566;28;20071;-50
2023/06/06 07:17:05;;;;;;;4.40;3.03;;;22.30;99.90;;;;;;5076185;28;20132;-50
2023/06/06 07:19:31;;;;;;;4.35;3.17;;;22.40;99.90;;;;;;5076501;28;20033;-50
2023/06/06 07:21:57;;;;;;;5.32;2.97;;;22.60;99.90;;;;;;5076507;28;20031;-51
2023/06/06 07:24:23;;;;;;;5.00;3.50;;;22.60;99.90;;;;;;5076436;28;20040;-51
2023/06/06 07:26:54;;;;;;;4.47;3.60;;;22.30;99.90;;;;;;5076095;28;20081;-51
2023/06/06 07:29:21;;;;;;;5.80;3.33;;;22.20;99.90;;;;;;5076027;28;20024;-50
2023/06/06 07:31:47;;;;;;;4.95;3.38;;;22.10;99.90;;;;;;5076263;28;20055;-51
2023/06/06 07:34:13;;;;;;;4.53;3.53;;;22.30;99.90;;;;;;5076491;28;20102;-51
2023/06/06 07:36:39;;;;;;;3.47;2.67;;;22.30;99.90;;;;;;5076014;28;20032;-51
2023/06/06 07:39:05;;;;;;;8.00;3.75;;;22.30;99.90;;;;;;5057399;28;20090;-51
2023/06/06 07:41:31;;;;;;;7.90;3.42;;;22.20;99.90;;;;;;5075925;28;20443;-50
2023/06/06 07:43:57;;;;;;;6.25;3.10;;;22.10;99.90;;;;;;5076081;28;20364;-51
2023/06/06 07:46:24;;;;;;;6.13;3.40;;;22.40;99.90;;;;;;5076041;28;20025;-51
2023/06/06 07:48:50;;;;;;;4.50;2.80;;;;;;;;;;5073627;28;20041;-50
2023/06/06 07:51:17;;;;;;;4.60;3.28;;;;;;;;;;5075481;28;20029;-50
2023/06/06 07:53:46;;;;;;;5.45;3.38;;;22.90;99.90;;;;;;5074310;28;20187;-51
2023/06/06 07:56:17;;;;;;;5.88;3.55;;;22.70;99.90;;;;;;5076039;28;20039;-50
2023/06/06 07:58:51;;;;;;;4.15;3.13;;;22.40;99.90;;;;;;5075655;28;20045;-50
2023/06/06 08:01:19;;;;;;;6.10;3.47;;;22.40;99.90;;;;;;5071301;28;20475;-50
2023/06/06 08:03:49;;;;;;;4.82;3.75;;;22.40;99.90;;;;;;5068422;28;20029;-51
2023/06/06 08:06:19;;;;;;;4.63;3.55;;;22.30;99.90;;;;;;5065160;28;20169;-50
2023/06/06 08:08:46;;;;;;;6.82;3.33;;;22.40;99.90;;;;;;5063771;28;20489;-51
2023/06/06 08:11:15;;;;;;;5.35;3.28;;;22.50;99.90;;;;;;5064946;28;20029;-51
2023/06/06 08:13:41;;;;;;;4.20;3.45;;;22.50;99.90;;;;;;5065730;28;20438;-51
2023/06/06 08:16:08;;;;;;;4.68;3.53;;;22.70;99.90;;;;;;5069858;28;20096;-51
2023/06/06 08:18:33;;;;;;;3.90;3.17;;;22.80;99.90;;;;;;5065208;28;20024;-51
2023/06/06 08:20:59;;;;;;;6.28;3.40;;;22.70;99.90;;;;;;5044934;28;20515;-50
2023/06/06 08:23:25;;;;;;;5.00;3.42;;;22.80;99.90;;;;;;5063920;28;20079;-50
2023/06/06 08:25:55;;;;;;;5.05;3.47;;;22.90;99.90;;;;;;5046166;28;20033;-50
2023/06/06 08:28:24;;;;;;;5.47;3.67;;;23.00;99.90;;;;;;5065245;28;20024;-51
2023/06/06 08:30:51;;;;;;;5.85;3.83;;;23.10;99.90;;;;;;5064331;28;20032;-50
2023/06/06 08:33:18;;;;;;;5.18;3.58;;;23.20;99.90;;;;;;5063675;28;20037;-50
2023/06/06 08:35:44;;;;;;;6.75;3.55;;;23.20;99.90;;;;;;5065317;28;20376;-50
2023/06/06 08:38:10;;;;;;;6.88;3.45;;;23.10;99.90;;;;;;5063898;28;20051;-50
2023/06/06 08:40:36;;;;;;;5.18;3.40;;;23.20;99.90;;;;;;5063571;28;20017;-51
2023/06/06 08:43:05;;;;;;;8.52;3.78;;;23.40;99.90;;;;;;5065142;28;20031;-50
2023/06/06 08:45:31;;;;;;;4.93;3.63;;;23.40;99.90;;;;;;5070157;28;20029;-51
2023/06/06 08:47:58;;;;;;;4.85;3.17;;;23.60;99.90;;;;;;5074626;28;20020;-50
2023/06/06 08:50:26;;;;;;;5.05;4.03;;;23.50;99.90;;;;;;5073116;28;20028;-51
2023/06/06 08:52:52;;;;;;;5.05;3.80;;;23.70;99.90;;;;;;5074637;28;20052;-51
2023/06/06 08:55:18;;;;;;;4.30;2.97;;;23.70;99.90;;;;;;5074502;28;20060;-51
2023/06/06 08:57:47;;;;;;;4.03;2.92;;;23.60;99.90;;;;;;5074682;28;20384;-51
2023/06/06 09:00:21;;;;;;;3.75;3.25;;;23.60;99.90;;;;;;5074390;28;20024;-51
2023/06/06 09:02:47;;;;;;;3.95;2.90;;;23.60;99.90;;;;;;5056965;28;20124;-51
2023/06/06 09:05:17;;;;;;;4.22;2.72;;;23.50;99.90;;;;;;5073942;28;20519;-50
2023/06/06 09:07:43;;;;;;;3.85;2.83;;;23.60;99.90;;;;;;5074420;28;20036;-50
2023/06/06 09:10:09;;;;;;;4.68;3.45;;;23.50;99.90;;;;;;5055819;28;20047;-50
2023/06/06 09:12:46;;;;;;;7.22;2.97;;;23.60;99.90;;;;;;5074023;28;20032;-51
2023/06/06 09:15:13;;;;;;;4.20;3.05;;;23.50;99.90;;;;;;5074281;28;20028;-51
2023/06/06 09:17:40;;;;;;;4.38;3.22;;;23.80;99.90;;;;;;5074459;28;20032;-51
2023/06/06 09:20:07;;;;;;;3.88;3.03;;;;;;;;;;5072942;28;20093;-52
2023/06/06 09:22:40;;;;;;;5.68;3.08;;;;;;;;;;5052016;28;20033;-51
2023/06/06 09:25:07;;;;;;;3.85;2.80;;;;;;;;;;5062624;28;20023;-52
2023/06/06 09:27:33;;;;;;;4.32;3.45;;;;;;;;;;5058094;28;20457;-50
2023/06/06 09:29:58;;;;;;;4.25;2.83;;;23.20;99.90;;;;;;5058302;28;20252;-50
2023/06/06 09:32:29;;;;;;;5.18;3.55;;;23.20;99.90;;;;;;5053538;28;20032;-50
2023/06/06 09:34:59;;;;;;;5.43;3.78;;;22.90;99.90;;;;;;5065830;28;20536;-51
2023/06/06 09:37:27;;;;;;;4.10;2.97;;;22.90;99.90;;;;;;5063909;28;20466;-50
2023/06/06 09:40:12;;;;;;;5.38;3.17;;;22.90;99.90;;;;;;5062507;28;20032;-50
2023/06/06 09:42:40;;;;;;;3.95;3.28;;;23.10;99.90;;;;;;5063124;28;20020;-50
2023/06/06 09:45:11;;;;;;;4.07;3.08;;;23.30;99.90;;;;;;5061885;28;20082;-50
2023/06/06 09:47:45;;;;;;;4.53;3.10;;;23.50;99.90;;;;;;5062814;28;20168;-50
2023/06/06 09:50:13;;;;;;;5.40;3.35;;;23.60;99.90;;;;;;5062142;28;20108;-50
2023/06/06 09:52:39;;;;;;;5.15;3.38;;;24.00;99.90;;;;;;5062703;28;20041;-50
2023/06/06 09:55:13;;;;;;;4.32;3.60;;;23.80;99.90;;;;;;5063877;28;20369;-49
2023/06/06 09:57:40;;;;;;;6.00;3.60;;;23.40;99.90;;;;;;5053982;28;20497;-52
2023/06/06 10:00:14;;;;;;;3.75;2.90;;;23.40;99.90;;;;;;5062182;28;20028;-51
2023/06/06 10:02:45;;;;;;;6.65;3.22;;;23.60;99.90;;;;;;5006749;28;20523;-50
2023/06/06 10:05:12;;;;;;;6.95;3.70;;;23.40;99.90;;;;;;5065490;28;20083;-50
2023/06/06 10:07:45;;;;;;;4.78;3.47;;;23.70;99.90;;;;;;5021748;28;20094;-50
2023/06/06 10:10:17;;;;;;;5.28;2.92;;;23.80;99.90;;;;;;5061569;28;20060;-48
2023/06/06 10:12:44;;;;;;;5.50;3.28;;;23.90;99.90;;;;;;5069239;28;20025;-47
2023/06/06 10:15:11;;;;;;;4.32;3.30;;;23.70;99.90;;;;;;5073073;28;20031;-46
2023/06/06 10:17:39;;;;;;;7.47;3.80;;;23.60;99.90;;;;;;5072654;28;20032;-50
2023/06/06 10:20:06;;;;;;;5.05;3.38;;;23.50;99.90;;;;;;5073220;28;20103;-50
2023/06/06 10:22:36;;;;;;;6.85;3.45;;;23.60;99.90;;;;;;5073179;28;20039;-50
2023/06/06 10:25:13;;;;;;;5.47;3.60;;;23.40;99.90;;;;;;5073059;28;20032;-50
2023/06/06 10:28:00;;;;;;;6.78;4.50;;;23.50;99.90;;;;;;5067417;28;20021;-46
2023/06/06 10:30:42;;;;;;;5.75;3.97;;;23.60;99.90;;;;;;5067592;28;20024;-49
2023/06/06 10:33:44;;;;;;;6.78;4.57;;;23.90;99.90;;;;;;5067611;28;20055;-49
2023/06/06 10:36:16;;;;;;;;;;;23.70;99.90;;;;;;5058328;28;20522;-48
2023/06/06 10:39:20;;;;;;;7.22;5.05;;;23.90;99.90;;;;;;5068564;28;19917;-45
2023/06/06 10:41:52;;;;;;;6.00;4.38;;;23.80;99.90;;;;;;5067148;28;20040;-48
2023/06/06 10:44:25;;;;;;;6.28;4.75;;;23.70;99.90;;;;;;5055481;28;20037;-51
2023/06/06 10:46:51;;;;;;;6.97;4.38;;;23.80;99.90;;;;;;5066369;28;20400;-52
2023/06/06 10:49:17;;;;;;;6.20;4.70;;;23.90;99.90;;;;;;5054946;28;20033;-51
2023/06/06 10:51:42;;;;;;;6.15;4.45;;;24.10;99.90;;;;;;5062175;28;20043;-51
2023/06/06 10:54:19;;;;;;;8.25;4.30;;;23.90;99.90;;;;;;5065428;28;20467;-52
2023/06/06 10:56:52;;;;;;;5.53;4.30;;;23.80;99.90;;;;;;5075485;28;20028;-49
2023/06/06 10:59:26;;;;;;;7.15;5.07;;;23.90;99.90;;;;;;5048440;28;20130;-52
2023/06/06 11:01:52;;;;;;;8.48;5.55;;;24.20;99.90;;;;;;5067111;28;20060;-54
2023/06/06 11:04:22;;;;;;;7.53;5.50;;;24.00;99.90;;;;;;5064916;28;20049;-55
2023/06/06 11:06:50;;;;;;;7.15;5.07;;;24.30;99.90;;;;;;5057937;28;20436;-59
2023/06/06 11:09:24;;;;;;;8.82;5.30;;;24.30;99.90;;;;;;5056598;28;20040;-61
2023/06/06 11:12:04;;;;;;;8.68;5.57;;;24.30;99.90;;;;;;5076421;28;20474;-60
2023/06/06 11:14:29;;;;;;;8.13;5.35;;;24.50;99.90;;;;;;5074437;28;20119;-64
2023/06/06 11:16:59;;;;;;;8.70;5.45;;;24.40;99.90;;;;;;5073308;28;20067;-58
2023/06/06 11:19:31;;;;;;;9.95;6.22;;;24.30;99.90;;;;;;5056980;28;20063;-57
2023/06/06 11:21:59;;;;;;;9.82;6.15;;;24.50;99.90;;;;;;5056252;28;20064;-55
2023/06/06 11:24:31;;;;;;;9.75;5.60;;;24.40;99.90;;;;;;5056409;28;20100;-56
2023/06/06 11:26:57;;;;;;;9.52;5.40;;;24.50;99.90;;;;;;5056258;28;20033;-56
2023/06/06 11:29:25;;;;;;;9.00;6.00;;;24.40;99.90;;;;;;5056299;28;20087;-56
2023/06/06 11:31:51;;;;;;;9.52;6.13;;;24.50;99.90;;;;;;5062088;28;20029;-51
2023/06/06 11:34:17;;;;;;;9.30;5.70;;;24.60;99.90;;;;;;5074806;28;20028;-51
2023/06/06 11:36:44;;;;;;;7.90;5.25;;;24.50;99.90;;;;;;5040826;28;20066;-53
2023/06/06 11:39:11;;;;;;;8.82;5.55;;;;;;;;;;5067547;28;20037;-52
2023/06/06 11:41:45;;;;;;;10.35;5.88;;;24.70;99.90;;;;;;5063186;28;20132;-54
2023/06/06 11:44:12;;;;;;;8.52;5.43;;;24.70;99.90;;;;;;5066283;28;20478;-57
2023/06/06 11:46:49;;;;;;;8.82;5.35;;;24.60;99.90;;;;;;5061677;28;20033;-55
2023/06/06 11:49:15;;;;;;;7.35;5.22;;;24.50;99.90;;;;;;5050299;28;20135;-59
2023/06/06 11:51:42;;;;;;;18.02;11.90;;;24.60;99.90;;;;;;5063512;28;20032;-56
2023/06/06 11:54:18;;;;;;;7.25;4.40;;;24.60;99.90;;;;;;5037480;28;20037;-55
2023/06/06 11:56:44;;;;;;;7.30;4.65;;;24.50;99.90;;;;;;5066624;28;20047;-54
2023/06/06 11:59:13;;;;;;;5.20;3.83;;;24.40;99.90;;;;;;5062469;28;20037;-60
2023/06/06 12:01:56;;;;;;;6.63;3.58;;;24.40;99.90;;;;;;5063673;28;20045;-50
2023/06/06 12:04:23;;;;;;;7.35;3.90;;;24.30;99.90;;;;;;5067346;28;20033;-51
2023/06/06 12:06:55;;;;;;;4.43;3.67;;;24.10;99.90;;;;;;5061107;28;20044;-52
2023/06/06 12:09:24;;;;;;;4.53;3.17;;;24.00;99.90;;;;;;5062030;28;20040;-50
2023/06/06 12:12:02;;;;;;;4.93;3.55;;;23.80;99.90;;;;;;5044173;28;20075;-50
2023/06/06 12:14:29;;;;;;;5.63;3.40;;;23.80;99.90;;;;;;5059587;28;20059;-50
2023/06/06 12:17:10;;;;;;;3.47;2.78;;;23.70;99.90;;;;;;5065162;28;20040;-50
2023/06/06 12:19:36;;;;;;;5.57;4.00;;;23.40;99.90;;;;;;5068589;28;20044;-53
2023/06/06 12:22:03;;;;;;;4.78;3.45;;;23.50;99.90;;;;;;5071980;28;20041;-51
2023/06/06 12:24:30;;;;;;;5.68;3.45;;;23.70;99.90;;;;;;5068945;28;20025;-50
2023/06/06 12:27:02;;;;;;;4.68;3.63;;;23.80;99.90;;;;;;5033929;28;20116;-53
2023/06/06 12:29:33;;;;;;;5.28;4.07;;;24.10;99.90;;;;;;5061547;28;20036;-48
2023/06/06 12:32:21;;;;;;;4.72;3.63;;;24.00;99.90;;;;;;5063296;28;20068;-54
2023/06/06 12:35:05;;;;;;;7.95;3.78;;;24.10;99.90;;;;;;5070013;28;20430;-52
2023/06/06 12:37:41;;;;;;;5.18;3.60;;;24.00;99.90;;;;;;5067973;28;20048;-52
2023/06/06 12:40:13;;;;;;;4.13;3.63;;;23.90;99.90;;;;;;5074686;28;20118;-50
2023/06/06 12:42:39;;;;;;;6.05;4.03;;;24.20;99.90;;;;;;5072806;28;20044;-50
2023/06/06 12:45:06;;;;;;;4.95;3.58;;;24.20;99.90;;;;;;5074721;28;20029;-51
2023/06/06 12:47:33;;;;;;;6.43;4.00;;;24.60;99.90;;;;;;5074544;28;20379;-50
2023/06/06 12:50:00;;;;;;;5.40;3.78;;;;;;;;;;5074543;28;20079;-51
2023/06/06 12:52:26;;;;;;;6.80;4.25;;;;;;;;;;5074529;28;20039;-50
2023/06/06 12:54:52;;;;;;;5.13;3.42;;;25.50;99.90;;;;;;5070107;28;20025;-51
2023/06/06 12:57:18;;;;;;;4.50;3.40;;;25.60;99.90;;;;;;5062859;28;20376;-50
2023/06/06 12:59:44;;;;;;;4.88;3.60;;;25.80;99.90;;;;;;5067870;28;20020;-51
2023/06/06 13:02:11;;;;;;;4.00;3.20;;;25.90;99.90;;;;;;5065369;28;20041;-50
2023/06/06 13:04:38;;;;;;;5.50;3.70;;;26.30;99.90;;;;;;5064703;28;20060;-51